SWA2876 KLAX-KPHX
Flight info
| Callsign | SWA2876 |
|---|---|
| Flight time | N/A |
| Altitude | 33000 |
| Route | DOTSS2 CNERY BLH HYDRR1 |
| Aircraft | B38M/M-SDE1FGHILORVWXY/HB1 |
Departure
| Time | 2026-04-26 04:12 |
|---|---|
| Airport | Los Angeles International Airport (KLAX) |
Arrival
| Time | N/A |
|---|---|
| Airport | Phoenix Sky Harbor International Airport (KPHX) |
| Time | Latitude | Longitude | Altitude | Speed | Heading |
|---|---|---|---|---|---|
| 2026-04-26 03:15 | 33.94687 | -118.40187 | 115 ft | 0 kts | 82° |
| 2026-04-26 03:44 | 33.94685 | -118.40204 | 122 ft | 4 kts | 77° |
| 2026-04-26 03:44 | 33.94676 | -118.40234 | 124 ft | 4 kts | 48° |
| 2026-04-26 03:44 | 33.94657 | -118.40247 | 122 ft | 2 kts | 354° |
| 2026-04-26 03:45 | 33.94656 | -118.40246 | 123 ft | 1 kts | 353° |
| 2026-04-26 03:51 | 33.94660 | -118.40247 | 121 ft | 2 kts | 353° |
| 2026-04-26 03:52 | 33.94682 | -118.40250 | 122 ft | 5 kts | 352° |
| 2026-04-26 03:52 | 33.94733 | -118.40259 | 123 ft | 9 kts | 351° |
| 2026-04-26 03:52 | 33.94766 | -118.40265 | 123 ft | 3 kts | 351° |
| 2026-04-26 03:52 | 33.94792 | -118.40280 | 121 ft | 6 kts | 317° |
| 2026-04-26 03:53 | 33.94806 | -118.40334 | 124 ft | 8 kts | 270° |
| 2026-04-26 03:53 | 33.94802 | -118.40396 | 122 ft | 8 kts | 265° |
| 2026-04-26 03:53 | 33.94799 | -118.40434 | 124 ft | 8 kts | 264° |
| 2026-04-26 03:54 | 33.94793 | -118.40497 | 126 ft | 7 kts | 262° |
| 2026-04-26 03:54 | 33.94786 | -118.40557 | 126 ft | 7 kts | 262° |
| 2026-04-26 03:54 | 33.94779 | -118.40616 | 127 ft | 8 kts | 262° |
| 2026-04-26 03:54 | 33.94772 | -118.40687 | 121 ft | 9 kts | 263° |
| 2026-04-26 03:55 | 33.94763 | -118.40772 | 125 ft | 11 kts | 263° |
| 2026-04-26 03:55 | 33.94754 | -118.40869 | 125 ft | 12 kts | 263° |
| 2026-04-26 03:55 | 33.94743 | -118.40975 | 122 ft | 13 kts | 263° |
| 2026-04-26 03:55 | 33.94732 | -118.41090 | 122 ft | 14 kts | 263° |
| 2026-04-26 03:56 | 33.94711 | -118.41202 | 125 ft | 13 kts | 252° |
| 2026-04-26 03:56 | 33.94691 | -118.41308 | 125 ft | 13 kts | 263° |
| 2026-04-26 03:56 | 33.94633 | -118.41373 | 121 ft | 13 kts | 184° |
| 2026-04-26 03:56 | 33.94547 | -118.41362 | 122 ft | 12 kts | 173° |
| 2026-04-26 03:57 | 33.94465 | -118.41349 | 135 ft | 12 kts | 173° |
| 2026-04-26 03:57 | 33.94384 | -118.41337 | 122 ft | 12 kts | 174° |
| 2026-04-26 03:57 | 33.94304 | -118.41326 | 123 ft | 11 kts | 173° |
| 2026-04-26 03:57 | 33.94226 | -118.41314 | 123 ft | 12 kts | 172° |
| 2026-04-26 03:58 | 33.94141 | -118.41300 | 122 ft | 13 kts | 172° |
| 2026-04-26 03:58 | 33.94051 | -118.41283 | 123 ft | 14 kts | 173° |
| 2026-04-26 03:58 | 33.93952 | -118.41273 | 123 ft | 15 kts | 174° |
| 2026-04-26 03:58 | 33.93852 | -118.41259 | 123 ft | 14 kts | 173° |
| 2026-04-26 03:59 | 33.93763 | -118.41228 | 123 ft | 13 kts | 133° |
| 2026-04-26 03:59 | 33.93764 | -118.41122 | 123 ft | 13 kts | 82° |
| 2026-04-26 03:59 | 33.93775 | -118.41018 | 125 ft | 12 kts | 84° |
| 2026-04-26 03:59 | 33.93785 | -118.40916 | 125 ft | 12 kts | 83° |
| 2026-04-26 04:00 | 33.93796 | -118.40818 | 121 ft | 12 kts | 83° |
| 2026-04-26 04:00 | 33.93806 | -118.40722 | 123 ft | 11 kts | 82° |
| 2026-04-26 04:00 | 33.93816 | -118.40627 | 125 ft | 11 kts | 83° |
| 2026-04-26 04:00 | 33.93825 | -118.40536 | 122 ft | 11 kts | 82° |
| 2026-04-26 04:01 | 33.93834 | -118.40447 | 125 ft | 11 kts | 83° |
| 2026-04-26 04:01 | 33.93843 | -118.40359 | 125 ft | 11 kts | 83° |
| 2026-04-26 04:01 | 33.93853 | -118.40259 | 125 ft | 13 kts | 83° |
| 2026-04-26 04:01 | 33.93864 | -118.40147 | 125 ft | 14 kts | 82° |
| 2026-04-26 04:02 | 33.93877 | -118.40027 | 125 ft | 15 kts | 82° |
| 2026-04-26 04:02 | 33.93889 | -118.39904 | 124 ft | 15 kts | 83° |
| 2026-04-26 04:02 | 33.93903 | -118.39785 | 123 ft | 14 kts | 82° |
| 2026-04-26 04:02 | 33.93916 | -118.39674 | 125 ft | 13 kts | 81° |
| 2026-04-26 04:03 | 33.93926 | -118.39565 | 120 ft | 13 kts | 84° |
| 2026-04-26 04:03 | 33.93935 | -118.39459 | 123 ft | 13 kts | 83° |
| 2026-04-26 04:03 | 33.93946 | -118.39356 | 123 ft | 12 kts | 82° |
| 2026-04-26 04:03 | 33.93957 | -118.39255 | 123 ft | 12 kts | 83° |
| 2026-04-26 04:04 | 33.93967 | -118.39158 | 121 ft | 12 kts | 83° |
| 2026-04-26 04:04 | 33.93977 | -118.39062 | 125 ft | 11 kts | 82° |
| 2026-04-26 04:04 | 33.93985 | -118.38970 | 123 ft | 11 kts | 83° |
| 2026-04-26 04:04 | 33.93994 | -118.38879 | 125 ft | 11 kts | 83° |
| 2026-04-26 04:05 | 33.94004 | -118.38792 | 125 ft | 10 kts | 82° |
| 2026-04-26 04:05 | 33.94013 | -118.38699 | 120 ft | 13 kts | 83° |
| 2026-04-26 04:05 | 33.94026 | -118.38573 | 122 ft | 18 kts | 82° |
| 2026-04-26 04:05 | 33.94041 | -118.38422 | 122 ft | 18 kts | 83° |
| 2026-04-26 04:06 | 33.94055 | -118.38282 | 123 ft | 14 kts | 83° |
| 2026-04-26 04:06 | 33.94064 | -118.38200 | 125 ft | 6 kts | 83° |
| 2026-04-26 04:06 | 33.94064 | -118.38196 | 125 ft | 0 kts | 83° |
| 2026-04-26 04:07 | 33.94065 | -118.38190 | 124 ft | 3 kts | 83° |
| 2026-04-26 04:07 | 33.94067 | -118.38164 | 124 ft | 6 kts | 82° |
| 2026-04-26 04:07 | 33.94079 | -118.38068 | 124 ft | 9 kts | 81° |
| 2026-04-26 04:07 | 33.94079 | -118.38027 | 124 ft | 3 kts | 108° |
| 2026-04-26 04:08 | 33.94074 | -118.38018 | 124 ft | 0 kts | 130° |
| 2026-04-26 04:10 | 33.94067 | -118.38012 | 121 ft | 3 kts | 147° |
| 2026-04-26 04:10 | 33.94021 | -118.37999 | 122 ft | 10 kts | 176° |
| 2026-04-26 04:10 | 33.93983 | -118.38046 | 122 ft | 0 kts | 262° |
| 2026-04-26 04:11 | 33.93980 | -118.38065 | 122 ft | 16 kts | 262° |
| 2026-04-26 04:11 | 33.93932 | -118.38529 | 125 ft | 96 kts | 263° |
| 2026-04-26 04:12 | 33.93809 | -118.39606 | 137 ft | 160 kts | 261° |
| 2026-04-26 04:12 | 33.93636 | -118.41069 | 602 ft | 188 kts | 261° |
| 2026-04-26 04:12 | 33.93461 | -118.42692 | 1370 ft | 200 kts | 262° |
| 2026-04-26 04:12 | 33.93313 | -118.44336 | 2446 ft | 198 kts | 263° |
| 2026-04-26 04:13 | 33.93116 | -118.46092 | 2886 ft | 232 kts | 256° |
| 2026-04-26 04:13 | 33.92323 | -118.47960 | 3122 ft | 267 kts | 225° |
| 2026-04-26 04:13 | 33.90999 | -118.49457 | 4421 ft | 256 kts | 222° |
| 2026-04-26 04:13 | 33.89731 | -118.51008 | 5426 ft | 263 kts | 229° |
| 2026-04-26 04:14 | 33.88562 | -118.52656 | 6524 ft | 261 kts | 233° |
| 2026-04-26 04:14 | 33.87396 | -118.54361 | 7703 ft | 258 kts | 232° |
| 2026-04-26 04:14 | 33.85984 | -118.55708 | 8506 ft | 275 kts | 205° |
| 2026-04-26 04:14 | 33.84102 | -118.55975 | 9874 ft | 260 kts | 180° |
| 2026-04-26 04:15 | 33.82425 | -118.55668 | 11499 ft | 234 kts | 176° |
| 2026-04-26 04:15 | 33.80839 | -118.55243 | 12376 ft | 239 kts | 174° |
| 2026-04-26 04:15 | 33.79123 | -118.54725 | 12659 ft | 266 kts | 173° |
| 2026-04-26 04:15 | 33.77287 | -118.54180 | 13306 ft | 276 kts | 174° |
| 2026-04-26 04:16 | 33.75410 | -118.53646 | 14124 ft | 278 kts | 175° |
| 2026-04-26 04:16 | 33.73514 | -118.53124 | 14907 ft | 280 kts | 175° |
| 2026-04-26 04:16 | 33.71618 | -118.52566 | 15719 ft | 285 kts | 167° |
| 2026-04-26 04:16 | 33.69895 | -118.51254 | 16397 ft | 306 kts | 140° |
| 2026-04-26 04:17 | 33.68727 | -118.49055 | 16905 ft | 319 kts | 117° |
| 2026-04-26 04:17 | 33.67948 | -118.46526 | 16993 ft | 326 kts | 113° |
| 2026-04-26 04:17 | 33.67242 | -118.43948 | 17011 ft | 325 kts | 113° |
| 2026-04-26 04:17 | 33.66521 | -118.41363 | 17435 ft | 327 kts | 114° |
| 2026-04-26 04:18 | 33.65775 | -118.38783 | 18110 ft | 328 kts | 114° |
| 2026-04-26 04:18 | 33.65013 | -118.36202 | 18725 ft | 329 kts | 115° |
| 2026-04-26 04:18 | 33.64396 | -118.33532 | 19216 ft | 340 kts | 99° |
| 2026-04-26 04:18 | 33.64326 | -118.30675 | 19743 ft | 345 kts | 94° |
| 2026-04-26 04:19 | 33.64347 | -118.27781 | 20254 ft | 348 kts | 93° |
| 2026-04-26 04:19 | 33.64381 | -118.24897 | 20777 ft | 352 kts | 93° |
| 2026-04-26 04:19 | 33.64411 | -118.21927 | 21268 ft | 362 kts | 94° |
| 2026-04-26 04:19 | 33.64427 | -118.18790 | 21416 ft | 389 kts | 94° |
| 2026-04-26 04:20 | 33.64433 | -118.15452 | 21630 ft | 411 kts | 94° |
| 2026-04-26 04:20 | 33.64437 | -118.11960 | 22135 ft | 423 kts | 94° |
| 2026-04-26 04:20 | 33.64440 | -118.08402 | 22890 ft | 428 kts | 94° |
| 2026-04-26 04:20 | 33.64443 | -118.04822 | 23622 ft | 431 kts | 94° |
| 2026-04-26 04:21 | 33.64441 | -118.01204 | 24178 ft | 436 kts | 94° |
| 2026-04-26 04:21 | 33.64438 | -117.97549 | 24741 ft | 440 kts | 94° |
| 2026-04-26 04:21 | 33.64433 | -117.93854 | 25298 ft | 444 kts | 94° |
| 2026-04-26 04:21 | 33.64429 | -117.90127 | 25841 ft | 449 kts | 94° |
| 2026-04-26 04:22 | 33.64422 | -117.86353 | 26373 ft | 454 kts | 94° |
| 2026-04-26 04:22 | 33.64412 | -117.82548 | 26896 ft | 458 kts | 94° |
| 2026-04-26 04:22 | 33.64274 | -117.78721 | 27415 ft | 458 kts | 104° |
| 2026-04-26 04:22 | 33.63535 | -117.75081 | 27937 ft | 455 kts | 112° |
| 2026-04-26 04:23 | 33.62607 | -117.71440 | 28467 ft | 458 kts | 114° |
| 2026-04-26 04:23 | 33.61632 | -117.67789 | 28996 ft | 461 kts | 114° |
| 2026-04-26 04:23 | 33.60662 | -117.64123 | 29669 ft | 461 kts | 114° |
| 2026-04-26 04:23 | 33.59719 | -117.60465 | 30368 ft | 458 kts | 113° |
| 2026-04-26 04:24 | 33.58796 | -117.56803 | 30939 ft | 458 kts | 113° |
| 2026-04-26 04:24 | 33.57884 | -117.53141 | 31453 ft | 459 kts | 113° |
| 2026-04-26 04:24 | 33.56976 | -117.49469 | 31975 ft | 459 kts | 113° |
| 2026-04-26 04:24 | 33.56069 | -117.45798 | 32474 ft | 459 kts | 113° |
| 2026-04-26 04:25 | 33.55168 | -117.42163 | 32923 ft | 461 kts | 114° |
| 2026-04-26 04:25 | 33.53317 | -117.34722 | 32981 ft | 468 kts | 114° |
| 2026-04-26 04:26 | 33.51460 | -117.27252 | 32979 ft | 461 kts | 114° |
| 2026-04-26 04:26 | 33.50240 | -117.19604 | 33019 ft | 475 kts | 96° |
| 2026-04-26 04:27 | 33.50197 | -117.11693 | 33002 ft | 478 kts | 95° |
| 2026-04-26 04:27 | 33.50184 | -117.03706 | 32987 ft | 478 kts | 95° |
| 2026-04-26 04:28 | 33.50102 | -116.95747 | 32973 ft | 476 kts | 96° |
| 2026-04-26 04:28 | 33.49983 | -116.87825 | 32967 ft | 475 kts | 96° |
| 2026-04-26 04:29 | 33.49856 | -116.79956 | 32946 ft | 472 kts | 96° |
| 2026-04-26 04:29 | 33.49728 | -116.72074 | 32936 ft | 472 kts | 96° |
| 2026-04-26 04:30 | 33.49598 | -116.64265 | 32929 ft | 472 kts | 96° |
| 2026-04-26 04:30 | 33.49462 | -116.56402 | 32908 ft | 472 kts | 96° |
| 2026-04-26 04:31 | 33.49324 | -116.48515 | 32907 ft | 475 kts | 96° |
| 2026-04-26 04:31 | 33.49176 | -116.40564 | 32901 ft | 479 kts | 96° |
| 2026-04-26 04:32 | 33.49054 | -116.32561 | 32876 ft | 481 kts | 96° |
| 2026-04-26 04:32 | 33.48940 | -116.24568 | 32879 ft | 479 kts | 96° |
| 2026-04-26 04:33 | 33.48818 | -116.16586 | 32857 ft | 479 kts | 96° |
| 2026-04-26 04:33 | 33.48689 | -116.08613 | 32870 ft | 479 kts | 96° |
| 2026-04-26 04:34 | 33.49217 | -116.00704 | 32875 ft | 486 kts | 73° |